Time;durP1;ratioP1;P1;durP2;ratioP2;P2;SDS_P1;SDS_P2;PMS_P1;PMS_P2;Temp;Humidity;BMP_temperature;BMP_pressure;BME280_temperature;BME280_humidity;BME280_pressure;Samples;Min_cycle;Max_cycle;Signal;HPM_P1;HPM_P2
2023/07/20 00:03:25;;;;;;;3.63;2.30;;;;;;;22.47;61.41;100481.75;10259158;28;96926;-89
2023/07/20 00:08:29;;;;;;;4.65;2.50;;;;;;;22.38;61.78;100474.50;10259157;28;97191;-89
2023/07/20 00:13:35;;;;;;;4.65;2.75;;;;;;;22.55;61.47;100484.66;10273667;28;97790;-89
2023/07/20 00:18:39;;;;;;;3.92;2.38;;;;;;;22.51;61.51;100476.97;10300016;28;97489;-88
2023/07/20 00:23:44;;;;;;;;;;;;;;;22.29;62.44;100477.09;10299358;28;96681;-88
2023/07/20 00:28:51;;;;;;;5.57;2.37;;;;;;;22.17;62.12;100478.13;10275278;28;96684;-89
2023/07/20 00:33:56;;;;;;;5.00;2.47;;;;;;;21.89;63.01;100479.53;10256860;28;96679;-88
2023/07/20 00:39:00;;;;;;;4.40;2.30;;;;;;;21.64;63.81;100473.66;10257529;28;97504;-88
2023/07/20 00:44:06;;;;;;;3.70;2.30;;;;;;;21.70;63.61;100476.66;10257763;28;96710;-89
2023/07/20 00:49:09;;;;;;;4.93;2.40;;;;;;;21.75;63.77;100476.28;10258071;28;96910;-88
2023/07/20 00:54:13;;;;;;;4.78;2.55;;;;;;;21.98;62.63;100476.13;10257140;28;98249;-88
2023/07/20 00:59:17;;;;;;;4.87;2.20;;;;;;;21.80;63.34;100469.56;10257120;28;96608;-88
2023/07/20 01:04:21;;;;;;;3.50;2.40;;;;;;;21.72;63.30;100473.88;10270832;28;97056;-88
2023/07/20 01:09:32;;;;;;;4.72;2.90;;;;;;;21.74;63.42;100467.41;10298005;28;97113;-88
2023/07/20 01:14:38;;;;;;;3.10;2.20;;;;;;;21.61;63.89;100472.06;10297399;28;96689;-88
2023/07/20 01:19:41;;;;;;;4.50;2.03;;;;;;;21.50;63.75;100480.97;10296485;28;96710;-88
2023/07/20 01:25:08;;;;;;;5.65;2.67;;;;;;;21.52;64.35;100482.69;10255781;28;96918;-88
2023/07/20 01:30:35;;;;;;;3.92;2.53;;;;;;;21.31;64.70;100474.56;10256473;28;96794;-88
2023/07/20 01:35:43;;;;;;;5.93;2.78;;;;;;;21.35;64.77;100463.47;10256221;28;96658;-88
2023/07/20 01:40:46;;;;;;;4.53;2.50;;;;;;;21.40;65.14;100465.75;10256156;28;96666;-88
2023/07/20 01:45:49;;;;;;;6.40;2.60;;;;;;;21.25;65.31;100461.66;10255980;28;96863;-88
2023/07/20 01:50:54;;;;;;;4.45;2.67;;;;;;;21.28;65.06;100453.38;10255855;28;98207;-88
2023/07/20 01:55:58;;;;;;;4.30;2.28;;;;;;;21.12;65.47;100453.72;10255479;28;96865;-88
2023/07/20 02:01:02;;;;;;;4.90;2.20;;;;;;;20.95;65.86;100456.88;10256096;28;97754;-88
2023/07/20 02:06:07;;;;;;;4.63;2.50;;;;;;;21.19;65.72;100448.78;10254990;28;96720;-88
2023/07/20 02:11:10;;;;;;;4.05;2.13;;;;;;;21.13;65.79;100441.19;10258612;28;96914;-88
2023/07/20 02:16:14;;;;;;;5.03;2.30;;;;;;;21.23;65.32;100428.78;10294403;28;96769;-88
2023/07/20 02:21:19;;;;;;;6.13;2.90;;;;;;;21.23;65.55;100432.34;10295282;28;97636;-88
2023/07/20 02:26:23;;;;;;;4.63;3.05;;;;;;;20.99;65.84;100436.06;10295377;28;96794;-88
2023/07/20 02:31:28;;;;;;;;;;;;;;;20.88;66.97;100436.94;10265581;28;96707;-88
2023/07/20 02:36:33;;;;;;;5.22;2.17;;;;;;;21.01;65.59;100431.47;10255222;28;96734;-87
2023/07/20 02:41:37;;;;;;;5.28;2.35;;;;;;;20.94;66.16;100424.91;10255067;28;96578;-88
2023/07/20 02:46:40;;;;;;;4.93;2.60;;;;;;;20.83;66.27;100420.41;10255921;28;96626;-88
2023/07/20 02:51:46;;;;;;;4.05;2.40;;;;;;;20.72;66.76;100423.09;10255381;28;96724;-88
2023/07/20 02:56:49;;;;;;;4.93;2.47;;;;;;;20.74;66.69;100418.44;10252932;28;96715;-87
2023/07/20 03:01:54;;;;;;;5.38;2.53;;;;;;;20.72;66.72;100419.53;10255425;28;96773;-88
2023/07/20 03:06:59;;;;;;;;;;;;;;;20.79;67.25;100416.25;10261794;28;96751;-87
2023/07/20 03:12:04;;;;;;;5.18;2.78;;;;;;;20.76;66.39;100407.63;10261491;28;96721;-87
2023/07/20 03:17:08;;;;;;;3.65;2.38;;;;;;;20.53;66.88;100400.56;10261459;28;96580;-87
2023/07/20 03:22:13;;;;;;;5.75;3.13;;;;;;;20.62;66.87;100405.19;10261669;28;97136;-88
2023/07/20 03:27:17;;;;;;;5.53;3.05;;;;;;;20.58;66.65;100409.94;10261831;28;96919;-88
2023/07/20 03:32:22;;;;;;;6.47;2.83;;;;;;;20.60;66.54;100409.81;10261503;28;97930;-88
2023/07/20 03:37:28;;;;;;;5.43;2.70;;;;;;;20.29;67.24;100408.63;10270624;28;96889;-87
2023/07/20 03:42:32;;;;;;;5.95;2.65;;;;;;;20.16;68.24;100408.72;10297260;28;96646;-87
2023/07/20 03:47:36;;;;;;;6.25;2.53;;;;;;;20.15;67.70;100400.84;10296900;28;97229;-87
2023/07/20 03:52:43;;;;;;;5.80;2.47;;;;;;;20.12;67.79;100403.72;10295538;28;96656;-88
2023/07/20 03:57:46;;;;;;;4.10;2.75;;;;;;;20.24;67.54;100403.63;10287159;28;96896;-87
2023/07/20 04:02:50;;;;;;;4.68;2.83;;;;;;;20.27;67.18;100406.06;10255026;28;96749;-87
2023/07/20 04:07:55;;;;;;;4.57;2.80;;;;;;;20.34;66.83;100404.66;10255049;28;97156;-88
2023/07/20 04:12:58;;;;;;;4.18;2.70;;;;;;;20.32;66.97;100408.44;10280949;28;96790;-87
2023/07/20 04:18:01;;;;;;;3.80;2.53;;;;;;;20.24;67.23;100408.13;10294776;28;96822;-88
2023/07/20 04:23:06;;;;;;;3.88;2.42;;;;;;;20.27;67.11;100414.06;10301433;22;99534;-87
2023/07/20 04:28:10;;;;;;;4.90;2.70;;;;;;;20.32;67.20;100408.44;10261946;28;97757;-87
2023/07/20 04:33:13;;;;;;;5.60;2.40;;;;;;;20.15;67.55;100412.34;10254360;28;96786;-87
2023/07/20 04:38:18;;;;;;;5.13;2.70;;;;;;;20.18;67.58;100416.63;10253771;28;97360;-88
2023/07/20 04:43:21;;;;;;;4.28;2.50;;;;;;;19.99;67.93;100419.84;10253169;28;96974;-87
2023/07/20 04:48:25;;;;;;;5.80;2.80;;;;;;;20.08;67.85;100418.28;10291018;28;96814;-87
2023/07/20 04:53:30;;;;;;;6.13;2.70;;;;;;;19.99;68.29;100408.31;10293063;28;96628;-87
2023/07/20 04:58:34;;;;;;;3.60;2.53;;;;;;;19.87;68.66;100415.44;10293204;28;97737;-88
2023/07/20 05:03:38;;;;;;;5.47;2.92;;;;;;;19.95;68.65;100422.84;10283258;28;96790;-88
2023/07/20 05:08:46;;;;;;;5.85;3.17;;;;;;;19.92;68.66;100415.94;10293421;28;96755;-87
2023/07/20 05:13:51;;;;;;;5.30;2.92;;;;;;;20.00;68.61;100426.03;10292735;28;97084;-87
2023/07/20 05:18:57;;;;;;;5.70;2.97;;;;;;;20.18;67.77;100421.97;10292678;28;96763;-87
2023/07/20 05:24:02;;;;;;;4.80;2.75;;;;;;;20.31;67.87;100436.97;10284734;28;96674;-87
2023/07/20 05:29:05;;;;;;;5.85;2.78;;;;;;;20.05;68.51;100432.72;10252128;28;96727;-87
2023/07/20 05:34:10;;;;;;;5.90;3.10;;;;;;;20.54;67.83;100437.00;10251626;28;97215;-87
2023/07/20 05:39:18;;;;;;;7.28;3.70;;;;;;;20.69;67.54;100438.50;10288246;28;98052;-87
2023/07/20 05:44:21;;;;;;;4.40;2.90;;;;;;;20.77;67.38;100444.09;10291896;28;96800;-87
2023/07/20 05:49:27;;;;;;;6.20;3.03;;;;;;;20.79;67.69;100453.69;10292590;28;96682;-87
2023/07/20 05:54:33;;;;;;;4.70;3.10;;;;;;;20.77;68.00;100461.00;10291685;28;97242;-87
2023/07/20 05:59:38;;;;;;;5.35;3.03;;;;;;;20.89;67.34;100465.41;10256378;28;98686;-88
2023/07/20 06:04:42;;;;;;;6.03;3.10;;;;;;;20.81;67.55;100462.44;10251434;28;97883;-88
2023/07/20 06:09:49;;;;;;;6.78;2.88;;;;;;;20.74;68.00;100458.56;10260192;28;96739;-88
2023/07/20 06:14:53;;;;;;;4.95;3.33;;;;;;;20.86;67.39;100460.28;10291920;28;96722;-88
2023/07/20 06:19:57;;;;;;;5.90;2.83;;;;;;;20.90;67.59;100474.25;10292339;28;97240;-87
2023/07/20 06:25:04;;;;;;;5.53;3.10;;;;;;;20.73;68.07;100482.75;10290347;28;96673;-87
2023/07/20 06:30:09;;;;;;;6.38;3.35;;;;;;;20.90;67.82;100484.97;10286422;28;97477;-88
2023/07/20 06:35:15;;;;;;;4.50;2.90;;;;;;;20.98;67.39;100490.56;10291858;28;96576;-88
2023/07/20 06:40:21;;;;;;;6.63;3.53;;;;;;;20.91;67.72;100492.84;10290169;28;96735;-88
2023/07/20 06:45:27;;;;;;;6.43;3.13;;;;;;;21.15;67.18;100492.78;10290825;28;96663;-88
2023/07/20 06:50:30;;;;;;;8.63;3.90;;;;;;;21.14;67.34;100497.25;10290748;28;96801;-88
2023/07/20 06:55:36;;;;;;;5.53;3.50;;;;;;;21.08;67.51;100494.22;10287266;28;97778;-91
2023/07/20 07:00:44;;;;;;;5.07;3.28;;;;;;;21.09;67.58;100490.56;10278962;28;97034;-88
2023/07/20 07:05:48;;;;;;;5.90;3.43;;;;;;;21.30;67.04;100499.59;10291419;28;96698;-87
2023/07/20 07:10:54;;;;;;;7.97;3.70;;;;;;;21.28;67.06;100501.53;10290383;28;96702;-87
2023/07/20 07:15:58;;;;;;;5.20;3.30;;;;;;;21.26;67.06;100499.00;10291211;28;97407;-88
2023/07/20 07:21:01;;;;;;;6.78;4.03;;;;;;;21.35;67.20;100500.94;10289598;28;96685;-88
2023/07/20 07:26:07;;;;;;;6.07;3.78;;;;;;;21.43;66.90;100508.38;10290602;28;96879;-88
2023/07/20 07:31:12;;;;;;;6.85;3.70;;;;;;;21.47;67.46;100507.13;10252785;28;97201;-88
2023/07/20 07:36:17;;;;;;;;;;;;;;;21.50;67.34;100515.78;10272116;28;96754;-88
2023/07/20 07:41:22;;;;;;;7.43;4.00;;;;;;;21.61;66.87;100522.94;10291225;28;96612;-88
2023/07/20 07:46:27;;;;;;;6.50;4.13;;;;;;;21.62;67.27;100522.00;10289601;28;96951;-88
2023/07/20 07:51:32;;;;;;;7.13;4.35;;;;;;;21.57;67.40;100523.34;10294887;28;96705;-88
2023/07/20 07:56:37;;;;;;;9.48;4.28;;;;;;;21.68;66.96;100510.75;10296693;28;97693;-87
2023/07/20 08:01:41;;;;;;;6.30;3.78;;;;;;;21.88;67.12;100509.16;10268328;28;96810;-88
2023/07/20 08:06:44;;;;;;;7.55;4.35;;;;;;;21.81;67.54;100522.19;10256150;28;96652;-88
2023/07/20 08:11:49;;;;;;;6.80;4.33;;;;;;;21.87;67.48;100529.72;10288441;28;96682;-89
2023/07/20 08:16:53;;;;;;;9.43;4.10;;;;;;;22.32;66.39;100523.28;10295933;28;96780;-89
2023/07/20 08:21:57;;;;;;;;;;;;;;;22.15;67.31;100523.84;10295724;28;97380;-89
2023/07/20 08:27:01;;;;;;;7.57;3.65;;;;;;;22.23;66.65;100524.03;10295304;28;97233;-88
2023/07/20 08:32:06;;;;;;;7.50;4.13;;;;;;;22.39;66.27;100519.09;10263102;28;96806;-88
2023/07/20 08:37:10;;;;;;;6.03;3.85;;;;;;;22.66;65.87;100520.44;10253823;28;96770;-88
2023/07/20 08:42:16;;;;;;;5.88;3.60;;;;;;;22.88;65.29;100514.94;10259242;28;96733;-88
2023/07/20 08:47:21;;;;;;;5.03;3.00;;;;;;;23.16;64.77;100514.25;10295676;28;96778;-88
2023/07/20 08:52:25;;;;;;;5.82;3.47;;;;;;;23.13;64.89;100517.22;10293718;28;96590;-88
2023/07/20 08:57:29;;;;;;;6.00;3.50;;;;;;;23.63;63.54;100513.63;10259709;28;96817;-89
2023/07/20 09:02:41;;;;;;;7.65;3.65;;;;;;;23.87;63.17;100502.50;10276374;28;96660;-89
2023/07/20 09:07:44;;;;;;;5.85;3.53;;;;;;;24.39;62.15;100497.59;10293366;28;97056;-89
2023/07/20 09:12:49;;;;;;;4.63;3.27;;;;;;;24.86;61.02;100495.00;10293044;28;97618;-90
2023/07/20 09:17:53;;;;;;;5.70;3.80;;;;;;;24.93;60.43;100490.75;10292393;28;96968;-90
2023/07/20 09:22:57;;;;;;;5.60;3.53;;;;;;;25.02;60.28;100495.28;10291934;28;97856;-88
2023/07/20 09:28:04;;;;;;;5.55;3.55;;;;;;;25.06;60.65;100488.59;10292204;28;96719;-87
2023/07/20 09:33:19;;;;;;;6.35;3.58;;;;;;;25.25;60.19;100488.53;10268330;28;97451;-89
2023/07/20 09:38:27;;;;;;;6.55;3.55;;;;;;;25.59;59.63;100481.53;10290637;28;96733;-90
2023/07/20 09:43:33;;;;;;;5.35;3.80;;;;;;;25.60;59.62;100485.94;10291510;28;97517;-90
2023/07/20 09:48:36;;;;;;;4.78;3.50;;;;;;;25.56;59.47;100489.94;10291335;28;97780;-89
2023/07/20 09:54:00;;;;;;;5.47;3.58;;;;;;;25.72;59.23;100498.25;10289820;28;96878;-89
2023/07/20 09:59:05;;;;;;;5.05;3.40;;;;;;;25.69;58.63;100483.22;10255939;28;96883;-87
2023/07/20 10:04:10;;;;;;;6.75;3.67;;;;;;;25.75;58.58;100479.94;10250438;28;96757;-88
2023/07/20 10:09:16;;;;;;;5.57;3.45;;;;;;;25.85;58.45;100490.63;10271156;28;97318;-88
2023/07/20 10:14:22;;;;;;;4.35;3.22;;;;;;;26.26;58.08;100481.97;10290456;28;96711;-89
2023/07/20 10:19:35;;;;;;;6.20;3.83;;;;;;;26.01;58.17;100480.03;10290722;28;97425;-89
2023/07/20 10:24:41;;;;;;;7.07;3.90;;;;;;;26.03;57.81;100472.63;10290256;28;97017;-89
2023/07/20 10:29:49;;;;;;;4.85;3.28;;;;;;;26.53;56.98;100472.94;10291640;28;96984;-89
2023/07/20 10:34:54;;;;;;;5.88;3.63;;;;;;;26.50;56.67;100476.81;10209433;28;96583;-87
2023/07/20 10:40:26;;;;;;;6.72;3.80;;;;;;;26.35;55.61;100478.31;10209628;28;97076;-86
2023/07/20 10:45:44;;;;;;;6.10;3.50;;;;;;;26.01;55.99;100473.78;10286998;28;96792;-89
2023/07/20 10:51:10;;;;;;;6.88;3.75;;;;;;;25.79;55.91;100488.56;10290025;28;96786;-89
2023/07/20 10:56:16;;;;;;;7.07;4.15;;;;;;;26.18;55.40;100492.66;10289913;28;97748;-89
2023/07/20 11:01:22;;;;;;;5.43;3.63;;;;;;;26.33;54.08;100498.38;10285567;28;97380;-89
2023/07/20 11:06:34;;;;;;;7.95;4.13;;;;;;;26.84;53.12;100487.66;10290354;28;96900;-90
2023/07/20 11:11:40;;;;;;;6.28;4.18;;;;;;;26.82;53.43;100485.13;10289612;28;96746;-89
2023/07/20 11:16:50;;;;;;;5.93;3.55;;;;;;;26.62;51.14;100494.44;10288906;28;96727;-88
2023/07/20 11:21:57;;;;;;;6.05;3.78;;;;;;;27.28;51.68;100491.19;10290028;28;96890;-90
2023/07/20 11:27:04;;;;;;;6.22;3.83;;;;;;;27.30;51.78;100481.91;10294385;28;96921;-88
2023/07/20 11:32:10;;;;;;;7.28;4.00;;;;;;;27.45;51.36;100490.25;10281114;28;96742;-89
2023/07/20 11:37:15;;;;;;;8.25;4.07;;;;;;;27.84;50.76;100478.75;10295141;28;96613;-89
2023/07/20 11:42:21;;;;;;;4.93;3.22;;;;;;;28.13;50.26;100483.72;10295477;28;96896;-90
2023/07/20 11:47:31;;;;;;;5.10;3.63;;;;;;;27.92;50.57;100478.78;10289191;28;96680;-89
2023/07/20 11:52:36;;;;;;;4.50;3.58;;;;;;;28.06;49.94;100482.69;10295176;28;96905;-89
2023/07/20 11:57:39;;;;;;;6.57;4.05;;;;;;;28.17;49.32;100479.66;10275921;28;96795;-87
2023/07/20 12:02:43;;;;;;;5.45;3.15;;;;;;;28.23;49.54;100480.84;10253973;28;97430;-89
2023/07/20 12:07:49;;;;;;;6.07;3.40;;;;;;;28.42;49.49;100476.00;10271843;28;97052;-88
2023/07/20 12:12:53;;;;;;;5.78;3.60;;;;;;;28.24;49.63;100480.66;10295743;28;96750;-89
2023/07/20 12:18:00;;;;;;;;;;;;;;;28.36;48.43;100473.13;10295337;28;97875;-87
2023/07/20 12:23:07;;;;;;;4.97;3.47;;;;;;;28.29;48.37;100475.63;10294075;28;96822;-90
2023/07/20 12:28:12;;;;;;;5.05;3.33;;;;;;;28.73;48.19;100474.28;10293079;28;96934;-90
2023/07/20 12:33:17;;;;;;;4.32;3.00;;;;;;;28.92;47.49;100473.94;10261747;28;97307;-89
2023/07/20 12:38:20;;;;;;;5.30;3.17;;;;;;;28.39;47.42;100467.34;10252083;28;97546;-88
2023/07/20 12:43:24;;;;;;;5.18;3.40;;;;;;;28.54;48.30;100468.38;10283377;28;96688;-89
2023/07/20 12:48:46;;;;;;;5.32;3.40;;;;;;;28.68;47.56;100457.69;10287520;28;96634;-88
2023/07/20 12:53:52;;;;;;;7.75;2.97;;;;;;;28.94;47.36;100454.78;10293264;28;97589;-89
2023/07/20 12:58:55;;;;;;;;;;;;;;;28.97;47.71;100452.59;10293103;28;96935;-88
2023/07/20 13:04:00;;;;;;;5.82;3.38;;;;;;;28.51;47.07;100458.75;10292166;28;96909;-87
2023/07/20 13:09:07;;;;;;;6.82;3.42;;;;;;;28.82;47.30;100456.16;10286725;28;96618;-88
2023/07/20 13:14:12;;;;;;;5.30;3.58;;;;;;;28.84;47.72;100459.53;10293371;28;97149;-88
2023/07/20 13:19:20;;;;;;;6.30;3.95;;;;;;;29.11;46.84;100451.03;10291681;28;97602;-86
2023/07/20 13:24:23;;;;;;;6.85;3.67;;;;;;;29.08;47.21;100457.66;10291486;28;96689;-89
2023/07/20 13:29:28;;;;;;;;;;;;;;;29.08;46.42;100446.81;10291630;28;96993;-89
2023/07/20 13:34:35;;;;;;;8.02;4.38;;;;;;;29.09;45.67;100456.63;10283249;28;97591;-90
2023/07/20 13:39:40;;;;;;;7.35;4.20;;;;;;;29.11;45.75;100460.00;10292356;28;97825;-89
2023/07/20 13:44:43;;;;;;;6.35;3.75;;;;;;;29.21;45.32;100465.22;10291926;28;96656;-87
2023/07/20 13:49:48;;;;;;;;;;;;;;;28.82;44.81;100461.56;10291681;28;96674;-88
2023/07/20 13:55:06;;;;;;;4.80;3.28;;;;;;;29.11;45.13;100457.28;10292735;28;96956;-89
2023/07/20 14:00:11;;;;;;;4.82;3.70;;;;;;;29.00;44.82;100456.84;10279775;28;97627;-88
2023/07/20 14:05:20;;;;;;;5.00;3.17;;;;;;;28.86;44.81;100460.22;10256037;28;96751;-88
2023/07/20 14:10:28;;;;;;;7.45;3.42;;;;;;;29.00;44.69;100456.84;10286882;28;96676;-87
2023/07/20 14:15:32;;;;;;;4.57;2.95;;;;;;;29.06;44.68;100461.53;10291492;28;97594;-87
2023/07/20 14:20:37;;;;;;;5.65;3.40;;;;;;;29.06;44.54;100448.00;10290910;28;96668;-88
2023/07/20 14:25:41;;;;;;;4.15;3.00;;;;;;;28.90;44.67;100458.81;10290681;28;96745;-85
2023/07/20 14:30:47;;;;;;;3.83;3.00;;;;;;;28.84;44.49;100448.69;10278911;28;96924;-88
2023/07/20 14:35:53;;;;;;;4.22;2.72;;;;;;;28.65;44.52;100458.06;10249814;28;97304;-89
2023/07/20 14:40:56;;;;;;;4.07;2.83;;;;;;;28.38;44.76;100455.69;10268404;28;97852;-87
2023/07/20 14:45:59;;;;;;;;;;;;;;;28.41;44.51;100460.75;10291331;28;98422;-89
2023/07/20 14:51:04;;;;;;;3.88;2.70;;;;;;;28.55;44.69;100461.94;10290676;28;97074;-87
2023/07/20 14:56:08;;;;;;;3.50;2.15;;;;;;;28.13;45.02;100458.50;10287354;28;96835;-87
2023/07/20 15:01:12;;;;;;;3.92;2.10;;;;;;;28.42;44.78;100458.91;10288531;28;97116;-86
2023/07/20 15:06:17;;;;;;;;;;;;;;;28.45;44.80;100464.81;10290400;28;96784;-88
2023/07/20 15:11:20;;;;;;;3.53;2.25;;;;;;;28.24;44.72;100459.03;10290202;28;97618;-88
2023/07/20 15:16:24;;;;;;;3.90;2.17;;;;;;;28.11;44.58;100464.09;10289381;28;96705;-88
2023/07/20 15:21:31;;;;;;;2.53;1.80;;;;;;;27.92;44.73;100469.81;10289149;28;96614;-88
2023/07/20 15:26:35;;;;;;;3.80;2.30;;;;;;;27.95;43.84;100464.91;10288712;28;96856;-89
2023/07/20 15:31:39;;;;;;;3.78;1.98;;;;;;;28.09;43.32;100472.38;10287006;28;96990;-88
2023/07/20 15:36:50;;;;;;;3.60;2.10;;;;;;;28.16;43.46;100464.44;10283645;28;96640;-90
2023/07/20 15:41:55;;;;;;;3.97;2.08;;;;;;;28.26;42.67;100465.13;10289484;28;97690;-89
2023/07/20 15:46:59;;;;;;;2.95;2.03;;;;;;;28.06;44.14;100461.06;10288604;28;96891;-88
2023/07/20 15:52:07;;;;;;;2.88;1.73;;;;;;;28.07;44.90;100457.31;10287954;28;96856;-85
2023/07/20 15:57:11;;;;;;;4.10;2.17;;;;;;;27.87;45.27;100461.34;10288791;28;97294;-87
2023/07/20 16:02:15;;;;;;;2.65;1.98;;;;;;;27.58;46.00;100469.03;10254486;28;96812;-88
2023/07/20 16:07:23;;;;;;;4.18;1.88;;;;;;;27.62;45.99;100459.56;10278397;28;97649;-88
2023/07/20 16:12:28;;;;;;;2.67;1.75;;;;;;;27.43;46.24;100462.53;10293101;28;96747;-89
2023/07/20 16:17:33;;;;;;;3.53;1.95;;;;;;;27.00;46.81;100460.78;10295236;28;97584;-88
2023/07/20 16:22:40;;;;;;;2.70;1.70;;;;;;;27.25;46.83;100464.50;10294813;28;97071;-89
2023/07/20 16:27:46;;;;;;;2.95;1.83;;;;;;;27.23;46.88;100463.78;10294463;28;96674;-85
2023/07/20 16:32:51;;;;;;;2.83;1.98;;;;;;;27.05;46.74;100463.88;10265596;28;96827;-88
2023/07/20 16:37:59;;;;;;;3.13;1.60;;;;;;;26.76;47.37;100460.63;10256223;28;96743;-87
2023/07/20 16:43:08;;;;;;;4.35;2.00;;;;;;;26.50;47.04;100471.41;10293285;28;96695;-88
2023/07/20 16:48:13;;;;;;;2.78;1.75;;;;;;;26.50;47.10;100465.16;10293776;28;96909;-89
2023/07/20 16:53:22;;;;;;;2.15;1.50;;;;;;;26.62;46.93;100462.06;10297261;22;98154;-87
2023/07/20 16:58:27;;;;;;;2.83;1.40;;;;;;;26.56;46.80;100470.75;10283622;28;96748;-89
2023/07/20 17:03:30;;;;;;;2.33;1.70;;;;;;;26.56;47.46;100468.06;10269076;28;97025;-89
2023/07/20 17:08:35;;;;;;;3.40;1.80;;;;;;;26.41;47.73;100469.63;10252707;28;96758;-87
2023/07/20 17:13:38;;;;;;;2.60;1.65;;;;;;;26.26;48.41;100471.19;10268337;28;96807;-89
2023/07/20 17:18:42;;;;;;;3.23;1.57;;;;;;;26.30;48.03;100464.44;10293600;28;96780;-88
2023/07/20 17:23:50;;;;;;;2.03;1.35;;;;;;;26.29;48.18;100468.16;10291363;28;96686;-90
2023/07/20 17:28:57;;;;;;;3.88;1.92;;;;;;;26.36;48.11;100468.38;10285634;28;96792;-89
2023/07/20 17:34:02;;;;;;;3.55;1.65;;;;;;;26.19;48.84;100466.53;10253256;28;96838;-88
2023/07/20 17:39:07;;;;;;;3.35;1.88;;;;;;;26.00;49.26;100482.88;10252329;28;97547;-86
2023/07/20 17:44:13;;;;;;;3.03;1.67;;;;;;;25.85;48.94;100475.31;10252176;28;97408;-87
2023/07/20 17:49:17;;;;;;;2.67;1.40;;;;;;;25.74;49.43;100480.09;10281023;28;96811;-88
2023/07/20 17:54:21;;;;;;;3.97;1.40;;;;;;;25.54;49.90;100479.31;10286511;28;97105;-88
2023/07/20 17:59:25;;;;;;;2.38;1.73;;;;;;;25.24;50.43;100481.44;10250852;28;96880;-87
2023/07/20 18:04:31;;;;;;;3.35;1.48;;;;;;;25.24;50.53;100492.22;10266258;28;97064;-88
2023/07/20 18:09:36;;;;;;;3.30;1.40;;;;;;;25.05;50.96;100493.16;10292296;28;96776;-87
2023/07/20 18:14:42;;;;;;;2.42;1.65;;;;;;;25.07;51.23;100498.38;10290510;28;96639;-87
2023/07/20 18:19:48;;;;;;;3.03;1.60;;;;;;;24.98;51.70;100505.47;10291314;28;97006;-88
2023/07/20 18:24:52;;;;;;;2.47;1.58;;;;;;;24.71;51.94;100514.31;10289623;28;96781;-88
2023/07/20 18:29:56;;;;;;;3.60;1.85;;;;;;;24.79;51.91;100519.81;10271646;28;97093;-87
2023/07/20 18:35:02;;;;;;;2.70;1.50;;;;;;;24.76;52.08;100520.09;10249683;28;96723;-88
2023/07/20 18:40:08;;;;;;;2.42;1.55;;;;;;;24.65;52.59;100516.72;10278476;28;96788;-88
2023/07/20 18:45:12;;;;;;;2.50;1.50;;;;;;;24.39;53.30;100529.88;10290589;28;97204;-88
2023/07/20 18:50:33;;;;;;;2.78;1.35;;;;;;;24.44;53.40;100524.09;10283635;28;96751;-88
2023/07/20 18:55:39;;;;;;;2.78;1.58;;;;;;;24.45;53.52;100531.16;10288842;28;96682;-88
2023/07/20 19:00:42;;;;;;;2.80;1.40;;;;;;;24.32;53.80;100527.94;10255386;28;96759;-88
2023/07/20 19:05:46;;;;;;;2.53;1.33;;;;;;;24.18;54.18;100533.69;10248663;28;96874;-86
2023/07/20 19:10:51;;;;;;;3.83;1.98;;;;;;;24.05;54.89;100530.44;10250398;28;96724;-89
2023/07/20 19:16:02;;;;;;;1.55;1.10;;;;;;;23.91;55.03;100523.59;10286751;28;96876;-87
2023/07/20 19:21:07;;;;;;;2.47;1.25;;;;;;;23.91;54.99;100531.66;10289169;28;98037;-87
2023/07/20 19:26:11;;;;;;;;;;;;;;;23.77;55.44;100529.34;10289825;28;96799;-88
2023/07/20 19:31:15;;;;;;;2.05;1.38;;;;;;;23.64;55.38;100534.13;10288618;28;96836;-89
2023/07/20 19:36:19;;;;;;;2.60;1.50;;;;;;;23.51;55.73;100533.50;10260882;28;96729;-88
2023/07/20 19:41:24;;;;;;;3.35;1.30;;;;;;;23.35;56.37;100533.16;10248181;28;97658;-88
2023/07/20 19:46:28;;;;;;;1.75;1.10;;;;;;;23.27;55.88;100544.56;10266687;28;97035;-89
2023/07/20 19:51:35;;;;;;;1.88;1.30;;;;;;;23.27;55.83;100546.38;10296539;28;96681;-88
2023/07/20 19:56:41;;;;;;;2.08;1.15;;;;;;;23.14;55.45;100543.94;10270046;28;96764;-89
2023/07/20 20:01:46;;;;;;;2.42;1.00;;;;;;;23.25;55.01;100554.56;10255195;28;96801;-88
2023/07/20 20:06:50;;;;;;;1.80;1.20;;;;;;;23.16;55.33;100559.91;10293685;28;96642;-87
2023/07/20 20:11:54;;;;;;;1.38;1.05;;;;;;;23.13;55.42;100566.38;10294715;28;96673;-88
2023/07/20 20:16:57;;;;;;;1.83;0.90;;;;;;;23.00;55.96;100575.63;10294359;28;96963;-88
2023/07/20 20:22:04;;;;;;;1.15;0.90;;;;;;;22.98;56.05;100572.22;10293770;28;96611;-88
2023/07/20 20:27:09;;;;;;;1.30;0.93;;;;;;;22.79;56.50;100572.94;10293833;28;96958;-87
2023/07/20 20:32:13;;;;;;;2.20;0.82;;;;;;;22.64;56.75;100584.94;10275288;28;96647;-88
2023/07/20 20:37:16;;;;;;;1.27;0.65;;;;;;;22.59;57.02;100587.16;10265913;28;97324;-87
2023/07/20 20:42:21;;;;;;;2.27;1.10;;;;;;;22.41;57.97;100588.69;10294537;28;96684;-88
2023/07/20 20:47:24;;;;;;;1.10;0.70;;;;;;;22.41;57.68;100591.38;10293182;28;96792;-87
2023/07/20 20:52:27;;;;;;;1.50;0.70;;;;;;;22.29;58.38;100595.94;10292756;28;96692;-87
2023/07/20 20:57:33;;;;;;;2.55;0.98;;;;;;;22.27;58.47;100600.56;10258388;28;97163;-88
2023/07/20 21:02:36;;;;;;;1.90;0.70;;;;;;;22.22;58.84;100601.91;10252529;28;96703;-88
2023/07/20 21:07:40;;;;;;;1.05;0.77;;;;;;;22.00;59.24;100612.69;10252284;28;96778;-87
2023/07/20 21:12:45;;;;;;;0.80;0.50;;;;;;;22.01;59.32;100614.38;10276704;28;97769;-87
2023/07/20 21:17:48;;;;;;;1.40;0.70;;;;;;;21.93;59.69;100620.34;10292311;28;96661;-87
2023/07/20 21:22:52;;;;;;;1.38;0.65;;;;;;;22.00;59.58;100618.91;10291825;28;97394;-87
2023/07/20 21:27:57;;;;;;;0.80;0.60;;;;;;;22.09;59.30;100618.13;10291485;28;96847;-88
2023/07/20 21:33:00;;;;;;;1.48;0.70;;;;;;;22.04;59.54;100627.56;10267015;28;96771;-88
2023/07/20 21:38:04;;;;;;;1.93;0.63;;;;;;;22.15;59.35;100622.16;10251124;28;97356;-88
2023/07/20 21:43:10;;;;;;;2.20;0.80;;;;;;;22.25;59.07;100621.28;10250981;28;96742;-88
2023/07/20 21:48:16;;;;;;;0.90;0.60;;;;;;;22.14;59.64;100623.97;10287365;28;96761;-88
2023/07/20 21:53:20;;;;;;;1.02;0.60;;;;;;;22.10;60.06;100622.53;10290074;28;96565;-87
2023/07/20 21:58:25;;;;;;;;;;;;;;;22.12;60.25;100620.59;10258879;28;97779;-88
2023/07/20 22:03:29;;;;;;;0.57;0.43;;;;;;;22.15;59.85;100622.16;10273499;28;96794;-88
2023/07/20 22:08:33;;;;;;;1.45;0.90;;;;;;;22.16;59.77;100621.19;10290329;28;96655;-87
2023/07/20 22:13:38;;;;;;;0.90;0.67;;;;;;;22.13;59.67;100616.06;10289870;28;96781;-88
2023/07/20 22:18:41;;;;;;;1.58;0.70;;;;;;;21.96;60.60;100616.53;10289646;28;96779;-87
2023/07/20 22:23:44;;;;;;;0.70;0.60;;;;;;;21.95;60.59;100614.84;10290276;28;96837;-88
2023/07/20 22:28:49;;;;;;;1.08;0.73;;;;;;;21.96;60.56;100606.69;10289647;28;96792;-88
2023/07/20 22:33:52;;;;;;;0.65;0.50;;;;;;;22.05;60.38;100611.34;10257733;28;96643;-88
2023/07/20 22:38:56;;;;;;;1.10;0.60;;;;;;;22.10;60.50;100613.63;10283206;28;96925;-88
2023/07/20 22:44:00;;;;;;;0.88;0.60;;;;;;;22.10;60.32;100614.50;10289692;28;98045;-88
2023/07/20 22:49:03;;;;;;;1.20;0.60;;;;;;;22.16;60.43;100605.94;10289562;28;97436;-89
2023/07/20 22:54:07;;;;;;;0.80;0.60;;;;;;;22.08;60.70;100607.53;10288681;28;97827;-88
2023/07/20 22:59:13;;;;;;;1.58;0.60;;;;;;;21.87;61.21;100609.25;10263216;28;96652;-88
2023/07/20 23:04:19;;;;;;;1.38;0.80;;;;;;;21.76;61.43;100612.78;10248751;28;96807;-88
2023/07/20 23:09:22;;;;;;;1.17;0.70;;;;;;;21.79;61.19;100611.69;10254434;28;96677;-88
2023/07/20 23:14:44;;;;;;;1.92;0.93;;;;;;;21.58;61.69;100611.59;10282922;28;96649;-88
2023/07/20 23:19:47;;;;;;;1.50;0.85;;;;;;;21.59;61.62;100610.59;10290301;28;96697;-87
2023/07/20 23:24:51;;;;;;;0.90;0.60;;;;;;;21.50;61.92;100616.69;10295589;28;96775;-87
2023/07/20 23:29:55;;;;;;;0.85;0.60;;;;;;;21.50;61.75;100617.53;10294802;28;96616;-87